createdAt,value
2022-11-29T00:00:25.441Z,6.30
2022-11-29T00:03:14.370Z,6.30
2022-11-29T00:06:07.958Z,6.30
2022-11-29T00:08:58.014Z,6.20
2022-11-29T00:12:03.799Z,6.20
2022-11-29T00:14:52.462Z,6.20
2022-11-29T00:17:41.460Z,6.30
2022-11-29T00:20:30.165Z,6.30
2022-11-29T00:23:20.669Z,6.20
2022-11-29T00:26:10.600Z,6.20
2022-11-29T00:28:59.361Z,6.30
2022-11-29T00:31:48.096Z,6.20
2022-11-29T00:34:36.978Z,6.30
2022-11-29T00:37:25.693Z,6.30
2022-11-29T00:40:15.921Z,6.30
2022-11-29T00:43:04.695Z,6.30
2022-11-29T00:45:53.472Z,6.20
2022-11-29T00:48:42.214Z,6.30
2022-11-29T00:51:31.022Z,6.30
2022-11-29T00:54:19.808Z,6.20
2022-11-29T00:57:09.951Z,6.20
2022-11-29T00:59:58.605Z,6.30
2022-11-29T01:02:47.347Z,6.30
2022-11-29T01:05:36.191Z,6.30
2022-11-29T01:08:25.032Z,6.30
2022-11-29T01:11:19.555Z,6.30
2022-11-29T01:14:09.802Z,6.30
2022-11-29T01:16:58.505Z,6.20
2022-11-29T01:19:50.818Z,6.20
2022-11-29T01:22:40.721Z,6.30
2022-11-29T01:25:29.460Z,6.30
2022-11-29T01:28:18.220Z,6.30
2022-11-29T01:31:09.220Z,6.30
2022-11-29T01:33:59.163Z,6.20
2022-11-29T01:36:48.426Z,6.20
2022-11-29T01:39:37.265Z,6.10
2022-11-29T01:42:26.267Z,6.20
2022-11-29T01:45:22.976Z,6.10
2022-11-29T01:48:15.093Z,6.10
2022-11-29T01:51:04.144Z,6.10
2022-11-29T01:53:52.906Z,6.10
2022-11-29T01:56:42.526Z,6.10
2022-11-29T01:59:32.158Z,6.10
2022-11-29T02:02:26.201Z,6.10
2022-11-29T02:05:19.785Z,6.10
2022-11-29T02:08:10.830Z,6.10
2022-11-29T02:11:13.255Z,6.10
2022-11-29T02:14:12.623Z,6.10
2022-11-29T02:17:09.387Z,6.10
2022-11-29T02:20:38.823Z,6.10
2022-11-29T02:23:49.218Z,6.10
2022-11-29T02:27:19.661Z,6.10
2022-11-29T02:30:15.821Z,6.10
2022-11-29T02:33:43.801Z,6.10
2022-11-29T02:36:50.087Z,6.10
2022-11-29T02:39:53.369Z,6.10
2022-11-29T02:43:08.537Z,6.10
2022-11-29T02:46:11.299Z,6.10
2022-11-29T02:49:07.896Z,6.00
2022-11-29T02:52:02.682Z,6.00
2022-11-29T02:54:57.849Z,6.00
2022-11-29T02:57:53.497Z,6.00
2022-11-29T03:00:51.682Z,6.00
2022-11-29T03:03:49.182Z,6.00
2022-11-29T03:06:45.699Z,6.00
2022-11-29T03:09:40.694Z,6.00
2022-11-29T03:12:36.883Z,6.00
2022-11-29T03:15:31.504Z,6.00
2022-11-29T03:18:35.391Z,6.00
2022-11-29T03:21:36.157Z,5.90
2022-11-29T03:24:32.873Z,5.90
2022-11-29T03:27:26.488Z,6.00
2022-11-29T03:30:18.709Z,6.00
2022-11-29T03:33:13.998Z,6.00
2022-11-29T03:36:10.636Z,6.00
2022-11-29T03:39:05.354Z,6.00
2022-11-29T03:42:01.093Z,5.90
2022-11-29T03:44:56.922Z,6.00
2022-11-29T03:47:53.131Z,5.90
2022-11-29T03:50:45.538Z,5.90
2022-11-29T03:53:40.664Z,6.00
2022-11-29T03:56:32.945Z,5.90
2022-11-29T03:59:35.637Z,6.00
2022-11-29T04:03:01.619Z,6.00
2022-11-29T04:06:18.023Z,5.90
2022-11-29T04:09:28.196Z,5.90
2022-11-29T04:13:01.561Z,5.90
2022-11-29T04:16:27.282Z,5.90
2022-11-29T04:19:43.179Z,5.90
2022-11-29T04:23:02.122Z,5.90
2022-11-29T04:26:16.098Z,5.90
2022-11-29T04:29:23.312Z,5.90
2022-11-29T04:32:43.986Z,6.00
2022-11-29T04:35:55.104Z,6.00
2022-11-29T04:39:09.022Z,6.00
2022-11-29T04:42:21.350Z,5.90
2022-11-29T04:45:32.401Z,5.90
2022-11-29T04:48:56.637Z,6.00
2022-11-29T04:52:03.404Z,6.00
2022-11-29T04:55:03.706Z,6.00
2022-11-29T04:58:01.413Z,6.00
2022-11-29T05:01:00.956Z,6.00
2022-11-29T05:03:58.538Z,6.00
2022-11-29T05:07:00.464Z,6.00
2022-11-29T05:10:00.366Z,6.00
2022-11-29T05:12:57.027Z,6.00
2022-11-29T05:16:08.737Z,6.00
2022-11-29T05:19:17.978Z,6.10
2022-11-29T05:22:25.010Z,6.00
2022-11-29T05:25:30.497Z,6.00
2022-11-29T05:28:25.751Z,6.00
2022-11-29T05:31:39.255Z,6.00
2022-11-29T05:34:43.909Z,6.10
2022-11-29T05:37:44.521Z,6.10
2022-11-29T05:40:54.103Z,6.10
2022-11-29T05:43:55.478Z,6.20
2022-11-29T05:46:52.998Z,6.20
2022-11-29T05:49:49.599Z,6.10
2022-11-29T05:52:49.021Z,6.10
2022-11-29T05:55:46.918Z,6.10
2022-11-29T05:58:50.753Z,6.10
2022-11-29T06:01:48.584Z,6.10
2022-11-29T06:04:55.094Z,6.10
2022-11-29T06:07:51.863Z,6.10
2022-11-29T06:10:53.466Z,6.10
2022-11-29T06:13:56.724Z,6.10
2022-11-29T06:17:11.293Z,6.10
2022-11-29T06:20:21.183Z,6.10
2022-11-29T06:23:33.509Z,6.20
2022-11-29T06:26:39.593Z,6.10
2022-11-29T06:29:37.323Z,6.10
2022-11-29T06:32:34.431Z,6.20
2022-11-29T06:35:56.389Z,6.20
2022-11-29T06:38:46.213Z,6.20
2022-11-29T06:41:35.253Z,6.20
2022-11-29T06:44:24.614Z,6.20
2022-11-29T06:47:24.819Z,6.20
2022-11-29T06:50:31.532Z,6.20
2022-11-29T06:53:26.900Z,6.20
2022-11-29T06:56:23.505Z,6.20
2022-11-29T06:59:23.930Z,6.20
2022-11-29T07:02:25.845Z,6.20
2022-11-29T07:05:22.459Z,6.30
2022-11-29T07:08:16.249Z,6.20
2022-11-29T07:11:06.984Z,6.20
2022-11-29T07:13:56.342Z,6.20
2022-11-29T07:16:57.642Z,6.20
2022-11-29T07:19:56.013Z,6.30
2022-11-29T07:23:00.821Z,6.20
2022-11-29T07:25:59.565Z,6.20
2022-11-29T07:29:02.520Z,6.20
2022-11-29T07:32:01.913Z,6.30
2022-11-29T07:34:59.805Z,6.20
2022-11-29T07:38:05.508Z,6.30
2022-11-29T07:41:00.442Z,6.30
2022-11-29T07:43:58.322Z,6.30
2022-11-29T07:46:47.513Z,6.30
2022-11-29T07:49:36.428Z,6.30
2022-11-29T07:52:25.111Z,6.30
2022-11-29T07:55:18.713Z,6.30
2022-11-29T07:58:08.004Z,6.30
2022-11-29T08:00:58.118Z,6.30
2022-11-29T08:03:46.803Z,6.30
2022-11-29T08:06:35.689Z,6.30
2022-11-29T08:09:24.631Z,6.30
2022-11-29T08:12:13.326Z,6.30
2022-11-29T08:15:02.075Z,6.40
2022-11-29T08:17:53.169Z,6.40
2022-11-29T08:20:42.411Z,6.40
2022-11-29T08:23:31.074Z,6.40
2022-11-29T08:26:24.479Z,6.30
2022-11-29T08:29:17.149Z,6.30
2022-11-29T08:32:06.443Z,6.40
2022-11-29T08:34:57.458Z,6.40
2022-11-29T08:37:46.373Z,6.50
2022-11-29T08:40:35.113Z,6.50
2022-11-29T08:43:24.452Z,6.50
2022-11-29T08:46:18.258Z,6.60
2022-11-29T08:49:07.587Z,6.50
2022-11-29T08:52:17.672Z,6.50
2022-11-29T08:55:05.963Z,6.50
2022-11-29T08:57:55.641Z,6.60
2022-11-29T09:00:47.002Z,6.60
2022-11-29T09:03:53.401Z,6.50
2022-11-29T09:06:44.514Z,6.50
2022-11-29T09:09:34.703Z,6.50
2022-11-29T09:12:23.435Z,6.50
2022-11-29T09:15:13.031Z,6.40
2022-11-29T09:18:01.790Z,6.50
2022-11-29T09:20:50.434Z,6.50
2022-11-29T09:23:40.143Z,6.60
2022-11-29T09:26:32.454Z,6.60
2022-11-29T09:29:21.149Z,6.60
2022-11-29T09:32:09.858Z,6.60
2022-11-29T09:34:58.508Z,6.60
2022-11-29T09:37:47.173Z,6.60
2022-11-29T09:40:47.423Z,6.60
2022-11-29T09:43:55.169Z,6.60
2022-11-29T09:46:58.582Z,6.60
2022-11-29T09:50:02.310Z,6.60
2022-11-29T09:52:56.993Z,6.60
2022-11-29T09:55:59.485Z,6.60
2022-11-29T09:58:54.133Z,6.60
2022-11-29T10:01:47.716Z,6.60
2022-11-29T10:04:41.930Z,6.70
2022-11-29T10:07:38.840Z,6.60
2022-11-29T10:10:37.790Z,6.70
2022-11-29T10:13:30.873Z,6.70
2022-11-29T10:16:26.729Z,6.70
2022-11-29T10:19:23.052Z,6.70
2022-11-29T10:22:20.115Z,6.80
2022-11-29T10:25:11.590Z,6.70
2022-11-29T10:28:00.527Z,6.80
2022-11-29T10:30:50.406Z,6.80
2022-11-29T10:33:42.537Z,6.80
2022-11-29T10:36:37.949Z,6.80
2022-11-29T10:39:37.292Z,6.70
2022-11-29T10:42:45.636Z,6.70
2022-11-29T10:45:39.183Z,6.70
2022-11-29T10:48:31.863Z,6.70
2022-11-29T10:51:22.198Z,6.70
2022-11-29T10:54:22.065Z,6.70
2022-11-29T10:57:15.525Z,6.70
2022-11-29T11:00:07.988Z,6.80
2022-11-29T11:02:56.750Z,6.70
2022-11-29T11:06:05.056Z,6.80
2022-11-29T11:08:58.228Z,6.90
2022-11-29T11:11:52.597Z,6.90
2022-11-29T11:14:41.319Z,6.80
2022-11-29T11:17:33.118Z,6.90
2022-11-29T11:20:24.046Z,6.90
2022-11-29T11:23:25.927Z,6.90
2022-11-29T11:26:16.541Z,6.90
2022-11-29T11:29:05.548Z,6.80
2022-11-29T11:31:57.074Z,6.70
2022-11-29T11:34:52.899Z,6.80
2022-11-29T11:37:41.632Z,6.70
2022-11-29T11:40:32.094Z,6.80
2022-11-29T11:43:23.387Z,6.90
2022-11-29T11:46:17.748Z,6.90
2022-11-29T11:49:14.209Z,6.80
2022-11-29T11:52:04.568Z,6.90
2022-11-29T11:54:55.994Z,6.90
2022-11-29T11:57:44.705Z,6.90
2022-11-29T12:03:57.832Z,6.90
2022-11-29T12:06:51.828Z,6.90
2022-11-29T12:09:45.987Z,6.90
2022-11-29T12:12:37.641Z,6.90
2022-11-29T12:15:29.728Z,6.90
2022-11-29T12:18:28.038Z,7.00
2022-11-29T12:21:19.532Z,7.00
2022-11-29T12:24:20.296Z,7.00
2022-11-29T12:27:15.070Z,7.00
2022-11-29T12:30:03.862Z,7.00
2022-11-29T12:33:14.062Z,6.90
2022-11-29T12:36:34.576Z,6.90
2022-11-29T12:39:38.099Z,6.90
2022-11-29T12:42:47.359Z,6.90
2022-11-29T12:45:44.940Z,6.90
2022-11-29T12:48:41.603Z,7.00
2022-11-29T12:51:42.097Z,6.90
2022-11-29T12:54:44.966Z,7.00
2022-11-29T12:57:40.980Z,7.00
2022-11-29T13:00:35.954Z,7.00
2022-11-29T13:03:32.224Z,7.00
2022-11-29T13:06:28.694Z,7.00
2022-11-29T13:09:43.150Z,7.00
2022-11-29T13:12:37.937Z,7.00
2022-11-29T13:15:36.820Z,7.10
2022-11-29T13:18:33.919Z,7.10
2022-11-29T13:21:27.498Z,7.10
2022-11-29T13:24:23.786Z,7.00
2022-11-29T13:27:19.608Z,7.00
2022-11-29T13:30:09.273Z,7.00
2022-11-29T13:33:04.302Z,7.00
2022-11-29T13:35:58.877Z,7.00
2022-11-29T13:38:59.321Z,7.00
2022-11-29T13:41:52.834Z,7.00
2022-11-29T13:44:49.893Z,7.10
2022-11-29T13:47:50.710Z,7.00
2022-11-29T13:50:42.143Z,7.10
2022-11-29T13:53:48.773Z,7.00
2022-11-29T13:56:46.561Z,7.10
2022-11-29T13:59:40.540Z,7.10
2022-11-29T14:02:36.579Z,7.00
2022-11-29T14:05:27.318Z,7.00
2022-11-29T14:08:26.341Z,7.00
2022-11-29T14:11:23.719Z,7.00
2022-11-29T14:14:23.876Z,7.00
2022-11-29T14:17:48.407Z,7.00
2022-11-29T14:20:55.503Z,7.00
2022-11-29T14:23:46.818Z,7.00
2022-11-29T14:26:35.470Z,7.10
2022-11-29T14:29:55.073Z,7.10
2022-11-29T14:32:56.405Z,7.00
2022-11-29T14:35:49.160Z,6.90
2022-11-29T14:38:45.918Z,6.90
2022-11-29T14:41:50.759Z,6.90
2022-11-29T14:44:46.688Z,6.90
2022-11-29T14:47:39.312Z,6.90
2022-11-29T14:50:37.619Z,6.80
2022-11-29T14:53:34.231Z,6.80
2022-11-29T14:56:43.449Z,6.70
2022-11-29T14:59:50.193Z,6.70
2022-11-29T15:02:43.334Z,6.60
2022-11-29T15:05:34.661Z,6.50
2022-11-29T15:08:33.400Z,6.50
2022-11-29T15:11:36.889Z,6.50
2022-11-29T15:14:36.972Z,6.50
2022-11-29T15:17:31.373Z,6.40
2022-11-29T15:20:37.571Z,6.30
2022-11-29T15:23:27.649Z,6.30
2022-11-29T15:26:18.852Z,6.20
2022-11-29T15:29:14.891Z,6.20
2022-11-29T15:32:07.128Z,6.10
2022-11-29T15:34:57.300Z,6.00
2022-11-29T15:37:48.782Z,5.90
2022-11-29T15:40:52.738Z,5.90
2022-11-29T15:43:42.214Z,5.80
2022-11-29T15:46:32.489Z,5.80
2022-11-29T15:49:25.901Z,5.70
2022-11-29T15:52:20.797Z,5.60
2022-11-29T15:55:13.768Z,5.60
2022-11-29T15:58:08.657Z,5.60
2022-11-29T16:00:59.580Z,5.50
2022-11-29T16:03:49.720Z,5.50
2022-11-29T16:06:42.233Z,5.50
2022-11-29T16:09:37.481Z,5.40
2022-11-29T16:12:26.336Z,5.30
2022-11-29T16:15:29.499Z,5.30
2022-11-29T16:18:25.875Z,5.30
2022-11-29T16:21:26.561Z,5.20
2022-11-29T16:24:21.352Z,5.20
2022-11-29T16:27:10.115Z,5.10
2022-11-29T16:29:59.935Z,5.10
2022-11-29T16:32:54.062Z,5.00
2022-11-29T16:35:42.743Z,5.00
2022-11-29T16:38:31.548Z,5.00
2022-11-29T16:41:25.757Z,5.00
2022-11-29T16:44:56.135Z,4.90
2022-11-29T16:47:58.169Z,4.90
2022-11-29T16:50:46.888Z,4.90
2022-11-29T16:53:37.373Z,4.80
2022-11-29T16:56:28.976Z,4.80
2022-11-29T16:59:26.714Z,4.70
2022-11-29T17:02:17.366Z,4.70
2022-11-29T17:05:07.957Z,4.70
2022-11-29T17:07:56.941Z,4.60
2022-11-29T17:10:45.695Z,4.60
2022-11-29T17:13:34.382Z,4.60
2022-11-29T17:16:24.896Z,4.60
2022-11-29T17:19:14.566Z,4.60
2022-11-29T17:22:05.114Z,4.60
2022-11-29T17:24:54.290Z,4.60
2022-11-29T17:27:43.148Z,4.60
2022-11-29T17:30:31.915Z,4.70
2022-11-29T17:33:21.719Z,4.80
2022-11-29T17:36:12.654Z,4.70
2022-11-29T17:39:03.751Z,4.80
2022-11-29T17:41:52.413Z,4.70
2022-11-29T17:44:41.065Z,4.80
2022-11-29T17:47:29.752Z,4.80
2022-11-29T17:50:18.623Z,4.90
2022-11-29T17:53:07.307Z,4.90
2022-11-29T17:56:02.432Z,4.90
2022-11-29T17:58:53.065Z,5.00
2022-11-29T18:01:41.901Z,5.00
2022-11-29T18:04:30.698Z,5.10
2022-11-29T18:07:19.443Z,5.10
2022-11-29T18:10:09.552Z,5.10
2022-11-29T18:12:59.648Z,5.20
2022-11-29T18:15:48.299Z,5.20
2022-11-29T18:18:37.771Z,5.30
2022-11-29T18:21:26.762Z,5.30
2022-11-29T18:24:15.603Z,5.20
2022-11-29T18:27:04.400Z,5.30
2022-11-29T18:29:54.603Z,5.20
2022-11-29T18:32:43.333Z,5.20
2022-11-29T18:35:31.941Z,5.20
2022-11-29T18:38:20.637Z,5.20
2022-11-29T18:41:10.200Z,5.20
2022-11-29T18:44:00.494Z,5.20
2022-11-29T18:46:50.701Z,5.10
2022-11-29T18:49:39.405Z,5.10
2022-11-29T18:52:28.101Z,5.10
2022-11-29T18:55:16.884Z,5.20
2022-11-29T18:58:06.670Z,5.20
2022-11-29T19:00:55.365Z,5.20
2022-11-29T19:03:50.514Z,5.20
2022-11-29T19:06:40.253Z,5.20
2022-11-29T19:09:29.065Z,5.20
2022-11-29T19:12:17.721Z,5.20
2022-11-29T19:15:07.260Z,5.20
2022-11-29T19:17:55.918Z,5.20
2022-11-29T19:20:45.983Z,5.20
2022-11-29T19:23:34.896Z,5.20
2022-11-29T19:26:25.307Z,5.30
2022-11-29T19:29:14.602Z,5.30
2022-11-29T19:32:04.422Z,5.30
2022-11-29T19:34:53.096Z,5.30
2022-11-29T19:37:43.256Z,5.20
2022-11-29T19:40:31.932Z,5.20
2022-11-29T19:43:20.586Z,5.20
2022-11-29T19:46:10.589Z,5.20
2022-11-29T19:49:00.722Z,5.10
2022-11-29T19:51:49.375Z,5.10
2022-11-29T19:54:39.517Z,5.10
2022-11-29T19:57:29.237Z,5.10
2022-11-29T20:00:19.248Z,5.00
2022-11-29T20:03:07.946Z,5.00
2022-11-29T20:05:57.032Z,5.00
2022-11-29T20:08:46.142Z,5.10
2022-11-29T20:11:36.326Z,5.10
2022-11-29T20:14:25.008Z,5.10
2022-11-29T20:17:13.698Z,5.20
2022-11-29T20:20:02.449Z,5.10
2022-11-29T20:22:53.674Z,5.10
2022-11-29T20:25:42.354Z,5.20
2022-11-29T20:28:32.445Z,5.20
2022-11-29T20:31:23.417Z,5.20
2022-11-29T20:34:13.831Z,5.20
2022-11-29T20:37:30.322Z,5.30
2022-11-29T20:40:24.955Z,5.30
2022-11-29T20:43:17.515Z,5.30
2022-11-29T20:46:08.351Z,5.30
2022-11-29T20:49:03.130Z,5.30
2022-11-29T20:52:01.914Z,5.30
2022-11-29T20:54:50.575Z,5.30
2022-11-29T20:57:39.301Z,5.20
2022-11-29T21:00:28.145Z,5.30
2022-11-29T21:03:19.191Z,5.30
2022-11-29T21:06:08.380Z,5.30
2022-11-29T21:08:57.078Z,5.30
2022-11-29T21:11:46.207Z,5.20
2022-11-29T21:14:35.422Z,5.30
2022-11-29T21:17:30.124Z,5.30
2022-11-29T21:20:26.966Z,5.30
2022-11-29T21:23:21.949Z,5.30
2022-11-29T21:26:16.558Z,5.30
2022-11-29T21:29:19.086Z,5.40
2022-11-29T21:32:08.539Z,5.40
2022-11-29T21:34:57.165Z,5.30
2022-11-29T21:37:47.807Z,5.40
2022-11-29T21:40:36.538Z,5.30
2022-11-29T21:43:50.179Z,5.30
2022-11-29T21:46:33.966Z,5.30
2022-11-29T21:49:22.655Z,5.30
2022-11-29T21:52:11.842Z,5.30
2022-11-29T21:55:01.880Z,5.30
2022-11-29T21:57:50.563Z,5.30
2022-11-29T22:00:39.221Z,5.30
2022-11-29T22:03:27.906Z,5.30
2022-11-29T22:06:18.705Z,5.30
2022-11-29T22:09:10.733Z,5.30
2022-11-29T22:12:10.327Z,5.30
2022-11-29T22:15:11.376Z,5.30
2022-11-29T22:18:00.338Z,5.40
2022-11-29T22:20:49.012Z,5.30
2022-11-29T22:23:37.679Z,5.30
2022-11-29T22:26:26.388Z,5.30
2022-11-29T22:29:16.605Z,5.40
2022-11-29T22:32:05.382Z,5.30
2022-11-29T22:34:54.010Z,5.30
2022-11-29T22:37:42.671Z,5.40
2022-11-29T22:40:31.308Z,5.40
2022-11-29T22:43:19.959Z,5.40
2022-11-29T22:46:11.353Z,5.40
2022-11-29T22:49:00.720Z,5.40
2022-11-29T22:51:49.403Z,5.40
2022-11-29T22:54:38.069Z,5.40
2022-11-29T22:57:26.738Z,5.40
2022-11-29T23:00:16.060Z,5.40
2022-11-29T23:03:06.126Z,5.40
2022-11-29T23:05:54.781Z,5.40
2022-11-29T23:08:44.957Z,5.50
2022-11-29T23:11:34.023Z,5.50
2022-11-29T23:14:23.815Z,5.50
2022-11-29T23:17:12.523Z,5.50
2022-11-29T23:20:02.709Z,5.50
2022-11-29T23:22:51.378Z,5.50
2022-11-29T23:25:50.688Z,5.50
2022-11-29T23:28:39.357Z,5.50
2022-11-29T23:31:28.113Z,5.50
2022-11-29T23:34:16.893Z,5.50
2022-11-29T23:37:06.986Z,5.50
2022-11-29T23:39:55.623Z,5.50
2022-11-29T23:42:47.223Z,5.50
2022-11-29T23:45:39.592Z,5.50
2022-11-29T23:48:28.318Z,5.50
2022-11-29T23:51:17.752Z,5.50
2022-11-29T23:54:08.093Z,5.50
2022-11-29T23:56:56.810Z,5.40
2022-11-29T23:59:45.425Z,5.40
